sensor_id;sensor_type;location;lat;lon;timestamp;pressure;altitude;pressure_sealevel;temperature;humidity
9225;BME280;4647;48.072;11.616;2023-02-17T00:00:05;96144.63;;;7.63;47.81
9225;BME280;4647;48.072;11.616;2023-02-17T00:02:35;96149.97;;;7.59;47.89
9225;BME280;4647;48.072;11.616;2023-02-17T00:05:05;96145.97;;;7.46;48.27
9225;BME280;4647;48.072;11.616;2023-02-17T00:07:36;96148.34;;;7.55;48.04
9225;BME280;4647;48.072;11.616;2023-02-17T00:10:06;96146.13;;;7.60;47.95
9225;BME280;4647;48.072;11.616;2023-02-17T00:12:35;96145.44;;;7.67;47.70
9225;BME280;4647;48.072;11.616;2023-02-17T00:15:04;96147.38;;;7.70;47.53
9225;BME280;4647;48.072;11.616;2023-02-17T00:17:34;96147.78;;;7.72;47.68
9225;BME280;4647;48.072;11.616;2023-02-17T00:20:03;96145.81;;;7.65;47.92
9225;BME280;4647;48.072;11.616;2023-02-17T00:22:31;96145.44;;;7.67;47.75
9225;BME280;4647;48.072;11.616;2023-02-17T00:25:03;96144.41;;;7.45;48.40
9225;BME280;4647;48.072;11.616;2023-02-17T00:27:31;96140.53;;;7.43;48.52
9225;BME280;4647;48.072;11.616;2023-02-17T00:29:59;96148.28;;;7.48;48.47
9225;BME280;4647;48.072;11.616;2023-02-17T00:32:31;96144.81;;;7.47;48.46
9225;BME280;4647;48.072;11.616;2023-02-17T00:34:59;96137.06;;;7.42;48.25
9225;BME280;4647;48.072;11.616;2023-02-17T00:37:28;96135.22;;;7.50;48.19
9225;BME280;4647;48.072;11.616;2023-02-17T00:39:57;96138.31;;;7.52;48.36
9225;BME280;4647;48.072;11.616;2023-02-17T00:42:28;96137.16;;;7.53;48.27
9225;BME280;4647;48.072;11.616;2023-02-17T00:44:56;96141.31;;;7.43;48.67
9225;BME280;4647;48.072;11.616;2023-02-17T00:47:25;96146.34;;;7.45;48.68
9225;BME280;4647;48.072;11.616;2023-02-17T00:49:53;96142.06;;;7.40;48.78
9225;BME280;4647;48.072;11.616;2023-02-17T00:52:21;96144.00;;;7.43;48.61
9225;BME280;4647;48.072;11.616;2023-02-17T00:54:50;96146.06;;;7.57;48.47
9225;BME280;4647;48.072;11.616;2023-02-17T00:57:18;96150.66;;;7.53;48.53
9225;BME280;4647;48.072;11.616;2023-02-17T00:59:49;96141.34;;;7.47;48.58
9225;BME280;4647;48.072;11.616;2023-02-17T01:02:18;96130.34;;;7.29;48.80
9225;BME280;4647;48.072;11.616;2023-02-17T01:04:46;96135.63;;;7.52;48.28
9225;BME280;4647;48.072;11.616;2023-02-17T01:07:15;96150.22;;;7.47;48.34
9225;BME280;4647;48.072;11.616;2023-02-17T01:09:43;96137.09;;;7.46;48.46
9225;BME280;4647;48.072;11.616;2023-02-17T01:12:12;96143.72;;;7.52;48.24
9225;BME280;4647;48.072;11.616;2023-02-17T01:14:40;96134.66;;;7.33;48.69
9225;BME280;4647;48.072;11.616;2023-02-17T01:17:11;96143.34;;;7.20;49.12
9225;BME280;4647;48.072;11.616;2023-02-17T01:19:40;96133.69;;;7.19;48.80
9225;BME280;4647;48.072;11.616;2023-02-17T01:22:09;96138.25;;;7.11;48.94
9225;BME280;4647;48.072;11.616;2023-02-17T01:24:37;96138.56;;;7.09;48.93
9225;BME280;4647;48.072;11.616;2023-02-17T01:27:05;96143.16;;;7.05;49.00
9225;BME280;4647;48.072;11.616;2023-02-17T01:29:34;96139.13;;;6.92;49.50
9225;BME280;4647;48.072;11.616;2023-02-17T01:32:03;96129.75;;;6.83;49.69
9225;BME280;4647;48.072;11.616;2023-02-17T01:34:34;96130.91;;;6.82;49.66
9225;BME280;4647;48.072;11.616;2023-02-17T01:37:02;96129.97;;;6.70;49.79
9225;BME280;4647;48.072;11.616;2023-02-17T01:39:31;96131.72;;;6.59;50.37
9225;BME280;4647;48.072;11.616;2023-02-17T01:42:00;96123.78;;;6.40;50.89
9225;BME280;4647;48.072;11.616;2023-02-17T01:44:31;96127.16;;;6.37;50.89
9225;BME280;4647;48.072;11.616;2023-02-17T01:47:00;96122.88;;;6.32;51.07
9225;BME280;4647;48.072;11.616;2023-02-17T01:49:34;96113.72;;;6.37;51.01
9225;BME280;4647;48.072;11.616;2023-02-17T01:52:07;96122.69;;;6.44;50.70
9225;BME280;4647;48.072;11.616;2023-02-17T01:54:41;96107.09;;;6.57;50.33
9225;BME280;4647;48.072;11.616;2023-02-17T01:57:12;96112.59;;;6.64;50.39
9225;BME280;4647;48.072;11.616;2023-02-17T01:59:43;96114.72;;;6.82;49.98
9225;BME280;4647;48.072;11.616;2023-02-17T02:02:13;96118.25;;;6.86;49.87
9225;BME280;4647;48.072;11.616;2023-02-17T02:04:46;96114.59;;;7.01;49.14
9225;BME280;4647;48.072;11.616;2023-02-17T02:07:18;96122.41;;;7.09;49.19
9225;BME280;4647;48.072;11.616;2023-02-17T02:09:51;96103.69;;;7.20;48.69
9225;BME280;4647;48.072;11.616;2023-02-17T02:12:22;96103.31;;;7.22;48.89
9225;BME280;4647;48.072;11.616;2023-02-17T02:14:52;96103.28;;;7.18;49.10
9225;BME280;4647;48.072;11.616;2023-02-17T02:17:30;96117.19;;;7.24;48.88
9225;BME280;4647;48.072;11.616;2023-02-17T02:20:24;96115.47;;;7.38;48.55
9225;BME280;4647;48.072;11.616;2023-02-17T02:29:31;96108.53;;;7.37;48.66
9225;BME280;4647;48.072;11.616;2023-02-17T02:35:08;96108.81;;;7.32;48.86
9225;BME280;4647;48.072;11.616;2023-02-17T02:37:42;96120.50;;;7.44;48.63
9225;BME280;4647;48.072;11.616;2023-02-17T02:40:13;96118.25;;;7.49;48.36
9225;BME280;4647;48.072;11.616;2023-02-17T02:42:43;96121.88;;;7.60;48.10
9225;BME280;4647;48.072;11.616;2023-02-17T02:45:12;96109.56;;;7.63;47.82
9225;BME280;4647;48.072;11.616;2023-02-17T02:47:46;96099.16;;;7.61;47.87
9225;BME280;4647;48.072;11.616;2023-02-17T02:50:17;96116.19;;;7.73;47.72
9225;BME280;4647;48.072;11.616;2023-02-17T02:52:54;96127.50;;;7.85;47.75
9225;BME280;4647;48.072;11.616;2023-02-17T02:55:33;96118.66;;;7.88;47.64
9225;BME280;4647;48.072;11.616;2023-02-17T02:58:10;96117.22;;;7.98;47.42
9225;BME280;4647;48.072;11.616;2023-02-17T03:00:44;96119.22;;;8.05;47.28
9225;BME280;4647;48.072;11.616;2023-02-17T03:03:22;96119.31;;;8.19;46.91
9225;BME280;4647;48.072;11.616;2023-02-17T03:05:57;96113.91;;;8.19;46.49
9225;BME280;4647;48.072;11.616;2023-02-17T03:08:30;96110.47;;;8.22;46.91
9225;BME280;4647;48.072;11.616;2023-02-17T03:11:01;96094.19;;;8.11;46.93
9225;BME280;4647;48.072;11.616;2023-02-17T03:13:32;96105.06;;;8.22;47.19
9225;BME280;4647;48.072;11.616;2023-02-17T03:16:04;96095.66;;;8.01;47.78
9225;BME280;4647;48.072;11.616;2023-02-17T03:18:36;96099.50;;;8.00;47.97
9225;BME280;4647;48.072;11.616;2023-02-17T03:21:09;96100.31;;;8.05;48.12
9225;BME280;4647;48.072;11.616;2023-02-17T03:23:39;96100.31;;;8.05;48.11
9225;BME280;4647;48.072;11.616;2023-02-17T03:26:08;96094.94;;;8.05;48.06
9225;BME280;4647;48.072;11.616;2023-02-17T03:28:37;96106.44;;;8.01;48.09
9225;BME280;4647;48.072;11.616;2023-02-17T03:31:05;96101.91;;;8.13;47.83
9225;BME280;4647;48.072;11.616;2023-02-17T03:33:37;96098.06;;;8.10;47.94
9225;BME280;4647;48.072;11.616;2023-02-17T03:36:06;96094.63;;;8.17;47.88
9225;BME280;4647;48.072;11.616;2023-02-17T03:38:35;96093.03;;;8.09;48.10
9225;BME280;4647;48.072;11.616;2023-02-17T03:41:03;96082.28;;;8.16;47.79
9225;BME280;4647;48.072;11.616;2023-02-17T03:43:32;96082.69;;;8.18;47.53
9225;BME280;4647;48.072;11.616;2023-02-17T03:46:01;96087.50;;;8.39;46.85
9225;BME280;4647;48.072;11.616;2023-02-17T03:48:30;96085.47;;;8.28;47.00
9225;BME280;4647;48.072;11.616;2023-02-17T03:51:09;96082.50;;;8.41;46.87
9225;BME280;4647;48.072;11.616;2023-02-17T03:53:38;96075.97;;;8.45;46.69
9225;BME280;4647;48.072;11.616;2023-02-17T03:56:06;96073.31;;;8.52;46.48
9225;BME280;4647;48.072;11.616;2023-02-17T03:58:35;96078.38;;;8.57;46.34
9225;BME280;4647;48.072;11.616;2023-02-17T04:01:05;96076.09;;;8.67;46.03
9225;BME280;4647;48.072;11.616;2023-02-17T04:03:35;96071.44;;;8.64;45.88
9225;BME280;4647;48.072;11.616;2023-02-17T04:06:06;96080.31;;;8.64;45.87
9225;BME280;4647;48.072;11.616;2023-02-17T04:08:38;96077.63;;;8.68;46.13
9225;BME280;4647;48.072;11.616;2023-02-17T04:11:08;96076.50;;;8.69;45.88
9225;BME280;4647;48.072;11.616;2023-02-17T04:13:37;96080.75;;;8.70;45.97
9225;BME280;4647;48.072;11.616;2023-02-17T04:16:08;96075.00;;;8.78;45.87
9225;BME280;4647;48.072;11.616;2023-02-17T04:18:37;96044.03;;;8.61;45.66
9225;BME280;4647;48.072;11.616;2023-02-17T04:21:08;96070.03;;;8.84;45.55
9225;BME280;4647;48.072;11.616;2023-02-17T04:23:37;96075.44;;;8.91;45.43
9225;BME280;4647;48.072;11.616;2023-02-17T04:26:07;96077.00;;;8.92;45.74
9225;BME280;4647;48.072;11.616;2023-02-17T04:28:36;96044.13;;;8.79;45.34
9225;BME280;4647;48.072;11.616;2023-02-17T04:31:06;96066.63;;;9.01;45.21
9225;BME280;4647;48.072;11.616;2023-02-17T04:33:34;96065.44;;;8.99;45.44
9225;BME280;4647;48.072;11.616;2023-02-17T04:36:03;96064.66;;;8.98;44.96
9225;BME280;4647;48.072;11.616;2023-02-17T04:38:34;96064.66;;;8.98;45.15
9225;BME280;4647;48.072;11.616;2023-02-17T04:41:04;96063.56;;;9.06;45.13
9225;BME280;4647;48.072;11.616;2023-02-17T04:43:33;96060.47;;;9.08;45.16
9225;BME280;4647;48.072;11.616;2023-02-17T04:46:01;96066.66;;;9.15;44.95
9225;BME280;4647;48.072;11.616;2023-02-17T04:48:30;96062.81;;;9.13;44.91
9225;BME280;4647;48.072;11.616;2023-02-17T04:50:58;96058.94;;;9.17;44.87
9225;BME280;4647;48.072;11.616;2023-02-17T04:53:27;96065.91;;;9.18;44.91
9225;BME280;4647;48.072;11.616;2023-02-17T04:55:58;96052.00;;;9.20;44.68
9225;BME280;4647;48.072;11.616;2023-02-17T04:58:27;96063.25;;;9.26;44.65
9225;BME280;4647;48.072;11.616;2023-02-17T05:00:58;96059.38;;;9.27;44.87
9225;BME280;4647;48.072;11.616;2023-02-17T05:03:26;96055.88;;;9.22;44.66
9225;BME280;4647;48.072;11.616;2023-02-17T05:05:55;96050.88;;;9.25;44.55
9225;BME280;4647;48.072;11.616;2023-02-17T05:08:23;96051.63;;;9.18;44.89
9225;BME280;4647;48.072;11.616;2023-02-17T05:10:52;96040.78;;;9.14;44.88
9225;BME280;4647;48.072;11.616;2023-02-17T05:13:23;96038.88;;;9.18;44.54
9225;BME280;4647;48.072;11.616;2023-02-17T05:15:52;96034.66;;;9.25;44.43
9225;BME280;4647;48.072;11.616;2023-02-17T05:18:21;96033.13;;;9.27;44.23
9225;BME280;4647;48.072;11.616;2023-02-17T05:20:50;96029.25;;;9.28;44.42
9225;BME280;4647;48.072;11.616;2023-02-17T05:23:19;96029.66;;;9.27;44.10
9225;BME280;4647;48.072;11.616;2023-02-17T05:25:47;96030.03;;;9.32;44.18
9225;BME280;4647;48.072;11.616;2023-02-17T05:28:16;96030.44;;;9.34;44.16
9225;BME280;4647;48.072;11.616;2023-02-17T05:30:47;96032.75;;;9.36;44.33
9225;BME280;4647;48.072;11.616;2023-02-17T05:33:16;96035.44;;;9.36;44.17
9225;BME280;4647;48.072;11.616;2023-02-17T05:35:44;96032.75;;;9.32;44.13
9225;BME280;4647;48.072;11.616;2023-02-17T05:38:12;96038.94;;;9.36;44.05
9225;BME280;4647;48.072;11.616;2023-02-17T05:40:41;96028.88;;;9.40;43.77
9225;BME280;4647;48.072;11.616;2023-02-17T05:43:09;96035.84;;;9.38;43.79
9225;BME280;4647;48.072;11.616;2023-02-17T05:45:38;96038.97;;;9.54;43.53
9225;BME280;4647;48.072;11.616;2023-02-17T05:48:09;96036.28;;;9.54;43.26
9225;BME280;4647;48.072;11.616;2023-02-17T05:50:37;96030.84;;;9.58;43.32
9225;BME280;4647;48.072;11.616;2023-02-17T05:53:06;96029.31;;;9.53;43.20
9225;BME280;4647;48.072;11.616;2023-02-17T05:55:34;96030.09;;;9.50;42.85
9225;BME280;4647;48.072;11.616;2023-02-17T05:58:03;96038.59;;;9.59;42.80
9225;BME280;4647;48.072;11.616;2023-02-17T06:00:31;96031.63;;;9.51;43.22
9225;BME280;4647;48.072;11.616;2023-02-17T06:03:00;96035.09;;;9.48;43.41
9225;BME280;4647;48.072;11.616;2023-02-17T06:05:31;96040.53;;;9.55;43.07
9225;BME280;4647;48.072;11.616;2023-02-17T06:07:59;96046.69;;;9.52;43.12
9225;BME280;4647;48.072;11.616;2023-02-17T06:10:28;96045.53;;;9.53;43.11
9225;BME280;4647;48.072;11.616;2023-02-17T06:12:56;96039.34;;;9.49;43.24
9225;BME280;4647;48.072;11.616;2023-02-17T06:15:25;96054.44;;;9.61;43.27
9225;BME280;4647;48.072;11.616;2023-02-17T06:17:54;96040.91;;;9.64;42.89
9225;BME280;4647;48.072;11.616;2023-02-17T06:20:23;96046.72;;;9.63;43.41
9225;BME280;4647;48.072;11.616;2023-02-17T06:22:54;96055.22;;;9.68;43.39
9225;BME280;4647;48.072;11.616;2023-02-17T06:25:22;96049.03;;;9.68;43.34
9225;BME280;4647;48.072;11.616;2023-02-17T06:27:50;96054.09;;;9.80;43.17
9225;BME280;4647;48.072;11.616;2023-02-17T06:30:19;96044.03;;;9.88;43.75
9225;BME280;4647;48.072;11.616;2023-02-17T06:32:48;96056.03;;;9.94;43.47
9225;BME280;4647;48.072;11.616;2023-02-17T06:35:17;96047.50;;;9.84;43.25
9225;BME280;4647;48.072;11.616;2023-02-17T06:37:46;96014.63;;;9.68;43.95
9225;BME280;4647;48.072;11.616;2023-02-17T06:40:17;96044.41;;;9.82;43.56
9225;BME280;4647;48.072;11.616;2023-02-17T06:42:46;96073.06;;;9.98;44.60
9225;BME280;4647;48.072;11.616;2023-02-17T06:45:14;96070.34;;;10.05;45.58
9225;BME280;4647;48.072;11.616;2023-02-17T06:47:43;96061.81;;;9.89;46.96
9225;BME280;4647;48.072;11.616;2023-02-17T06:50:12;96065.69;;;9.88;47.95
9225;BME280;4647;48.072;11.616;2023-02-17T06:52:40;96070.31;;;9.87;48.66
9225;BME280;4647;48.072;11.616;2023-02-17T06:55:09;96051.75;;;9.85;48.29
9225;BME280;4647;48.072;11.616;2023-02-17T06:57:41;96056.78;;;9.91;48.42
9225;BME280;4647;48.072;11.616;2023-02-17T07:00:10;96040.16;;;9.81;48.60
9225;BME280;4647;48.072;11.616;2023-02-17T07:02:39;96060.28;;;10.02;48.69
9225;BME280;4647;48.072;11.616;2023-02-17T07:05:08;96053.31;;;10.01;48.81
9225;BME280;4647;48.072;11.616;2023-02-17T07:07:36;96044.81;;;10.13;48.23
9225;BME280;4647;48.072;11.616;2023-02-17T07:10:06;96040.16;;;10.17;48.01
9225;BME280;4647;48.072;11.616;2023-02-17T07:12:34;96058.75;;;10.33;47.98
9225;BME280;4647;48.072;11.616;2023-02-17T07:15:06;96049.44;;;10.48;48.18
9225;BME280;4647;48.072;11.616;2023-02-17T07:17:35;96042.88;;;10.45;48.24
9225;BME280;4647;48.072;11.616;2023-02-17T07:20:05;96055.28;;;10.43;48.45
9225;BME280;4647;48.072;11.616;2023-02-17T07:22:33;96053.69;;;10.53;48.26
9225;BME280;4647;48.072;11.616;2023-02-17T07:25:02;96037.84;;;10.51;48.36
9225;BME280;4647;48.072;11.616;2023-02-17T07:27:30;96041.72;;;10.50;48.54
9225;BME280;4647;48.072;11.616;2023-02-17T07:29:59;96045.16;;;10.58;48.68
9225;BME280;4647;48.072;11.616;2023-02-17T07:32:30;96037.81;;;10.55;48.62
9225;BME280;4647;48.072;11.616;2023-02-17T07:35:00;96064.44;;;10.88;47.96
9225;BME280;4647;48.072;11.616;2023-02-17T07:37:28;96052.81;;;10.95;48.24
9225;BME280;4647;48.072;11.616;2023-02-17T07:39:58;96064.00;;;11.07;47.97
9225;BME280;4647;48.072;11.616;2023-02-17T07:42:27;96056.66;;;11.01;48.16
9225;BME280;4647;48.072;11.616;2023-02-17T07:44:55;96056.25;;;11.13;48.27
9225;BME280;4647;48.072;11.616;2023-02-17T07:47:24;96055.41;;;11.27;47.71
9225;BME280;4647;48.072;11.616;2023-02-17T07:49:55;96069.75;;;11.24;48.03
9225;BME280;4647;48.072;11.616;2023-02-17T07:52:23;96033.72;;;11.20;48.09
9225;BME280;4647;48.072;11.616;2023-02-17T07:54:52;96026.78;;;11.08;48.12
9225;BME280;4647;48.072;11.616;2023-02-17T07:57:20;96066.63;;;11.29;48.45
9225;BME280;4647;48.072;11.616;2023-02-17T07:59:49;96063.50;;;11.34;48.12
9225;BME280;4647;48.072;11.616;2023-02-17T08:02:18;96069.28;;;11.43;48.38
9225;BME280;4647;48.072;11.616;2023-02-17T08:04:46;96065.44;;;11.33;48.88
9225;BME280;4647;48.072;11.616;2023-02-17T08:07:17;96058.00;;;11.48;48.70
9225;BME280;4647;48.072;11.616;2023-02-17T08:09:46;96067.56;;;11.71;48.09
9225;BME280;4647;48.072;11.616;2023-02-17T08:12:26;96064.19;;;11.52;48.41
9225;BME280;4647;48.072;11.616;2023-02-17T08:15:09;96069.16;;;11.64;48.40
9225;BME280;4647;48.072;11.616;2023-02-17T08:17:38;96064.59;;;11.47;49.65
9225;BME280;4647;48.072;11.616;2023-02-17T08:20:08;96080.91;;;11.44;49.68
9225;BME280;4647;48.072;11.616;2023-02-17T08:22:40;96057.16;;;11.58;50.04
9225;BME280;4647;48.072;11.616;2023-02-17T08:25:08;96068.75;;;11.66;50.72
9225;BME280;4647;48.072;11.616;2023-02-17T08:27:37;96057.94;;;11.55;50.82
9225;BME280;4647;48.072;11.616;2023-02-17T08:30:07;96061.91;;;11.44;50.63
9225;BME280;4647;48.072;11.616;2023-02-17T08:32:35;96066.81;;;11.66;50.38
9225;BME280;4647;48.072;11.616;2023-02-17T08:35:04;96067.13;;;11.76;49.98
9225;BME280;4647;48.072;11.616;2023-02-17T08:37:34;96058.50;;;11.95;49.44
9225;BME280;4647;48.072;11.616;2023-02-17T08:40:07;96035.66;;;11.92;48.35
9225;BME280;4647;48.072;11.616;2023-02-17T08:42:36;96073.56;;;12.07;48.67
9225;BME280;4647;48.072;11.616;2023-02-17T08:45:05;96072.25;;;12.25;49.22
9225;BME280;4647;48.072;11.616;2023-02-17T08:47:34;96068.84;;;12.14;49.59
9225;BME280;4647;48.072;11.616;2023-02-17T08:50:04;96072.97;;;12.29;49.99
9225;BME280;4647;48.072;11.616;2023-02-17T08:52:33;96066.75;;;12.33;49.54
9225;BME280;4647;48.072;11.616;2023-02-17T08:55:01;96074.91;;;12.29;49.57
9225;BME280;4647;48.072;11.616;2023-02-17T08:57:32;96086.63;;;12.22;49.66
9225;BME280;4647;48.072;11.616;2023-02-17T09:00:04;96082.38;;;12.21;50.08
9225;BME280;4647;48.072;11.616;2023-02-17T09:02:33;96075.47;;;12.13;50.08
9225;BME280;4647;48.072;11.616;2023-02-17T09:05:03;96083.00;;;11.88;50.66
9225;BME280;4647;48.072;11.616;2023-02-17T09:07:31;96074.34;;;12.04;50.04
9225;BME280;4647;48.072;11.616;2023-02-17T09:10:00;96101.88;;;12.09;50.32
9225;BME280;4647;48.072;11.616;2023-02-17T09:12:31;96091.38;;;12.11;50.74
9225;BME280;4647;48.072;11.616;2023-02-17T09:15:00;96099.31;;;11.88;51.25
9225;BME280;4647;48.072;11.616;2023-02-17T09:17:29;96104.97;;;12.11;51.31
9225;BME280;4647;48.072;11.616;2023-02-17T09:19:57;96106.16;;;12.03;52.29
9225;BME280;4647;48.072;11.616;2023-02-17T09:22:25;96108.47;;;12.05;53.04
9225;BME280;4647;48.072;11.616;2023-02-17T09:24:54;96092.69;;;11.89;53.52
9225;BME280;4647;48.072;11.616;2023-02-17T09:27:22;96105.09;;;11.90;54.28
9225;BME280;4647;48.072;11.616;2023-02-17T09:29:54;96082.28;;;11.73;54.87
9225;BME280;4647;48.072;11.616;2023-02-17T09:32:23;96101.66;;;11.75;55.16
9225;BME280;4647;48.072;11.616;2023-02-17T09:34:51;96090.50;;;11.62;56.01
9225;BME280;4647;48.072;11.616;2023-02-17T09:37:20;96081.50;;;11.80;55.99
9225;BME280;4647;48.072;11.616;2023-02-17T09:39:49;96108.88;;;12.03;55.40
9225;BME280;4647;48.072;11.616;2023-02-17T09:42:20;96100.03;;;11.92;54.64
9225;BME280;4647;48.072;11.616;2023-02-17T09:44:54;96100.34;;;12.08;53.62
9225;BME280;4647;48.072;11.616;2023-02-17T09:47:29;96105.59;;;12.33;53.23
9225;BME280;4647;48.072;11.616;2023-02-17T09:50:05;96108.25;;;12.37;52.65
9225;BME280;4647;48.072;11.616;2023-02-17T09:52:36;96083.38;;;11.90;53.27
9225;BME280;4647;48.072;11.616;2023-02-17T09:55:09;96110.34;;;12.18;52.35
9225;BME280;4647;48.072;11.616;2023-02-17T09:57:44;96096.66;;;12.33;51.70
9225;BME280;4647;48.072;11.616;2023-02-17T10:00:22;96107.50;;;12.36;51.73
9225;BME280;4647;48.072;11.616;2023-02-17T10:02:57;96078.22;;;12.03;52.74
9225;BME280;4647;48.072;11.616;2023-02-17T10:05:29;96119.25;;;12.19;52.12
9225;BME280;4647;48.072;11.616;2023-02-17T10:08:06;96112.50;;;12.41;51.68
9225;BME280;4647;48.072;11.616;2023-02-17T10:10:40;96120.50;;;12.59;51.05
9225;BME280;4647;48.072;11.616;2023-02-17T10:13:09;96109.28;;;12.95;50.02
9225;BME280;4647;48.072;11.616;2023-02-17T10:15:43;96124.59;;;13.15;49.68
9225;BME280;4647;48.072;11.616;2023-02-17T10:18:18;96118.44;;;13.11;49.26
9225;BME280;4647;48.072;11.616;2023-02-17T10:20:55;96104.31;;;13.27;49.11
9225;BME280;4647;48.072;11.616;2023-02-17T10:23:27;96114.59;;;13.43;48.97
9225;BME280;4647;48.072;11.616;2023-02-17T10:26:07;96116.16;;;13.74;48.44
9225;BME280;4647;48.072;11.616;2023-02-17T10:28:50;96096.56;;;13.83;47.92
9225;BME280;4647;48.072;11.616;2023-02-17T10:31:27;96100.47;;;13.55;48.31
9225;BME280;4647;48.072;11.616;2023-02-17T10:34:01;96113.06;;;13.04;49.57
9225;BME280;4647;48.072;11.616;2023-02-17T10:36:40;96106.75;;;12.73;50.32
9225;BME280;4647;48.072;11.616;2023-02-17T10:39:14;96118.00;;;12.79;50.04
9225;BME280;4647;48.072;11.616;2023-02-17T10:41:51;96100.06;;;12.85;49.50
9225;BME280;4647;48.072;11.616;2023-02-17T10:44:23;96104.91;;;13.04;49.51
9225;BME280;4647;48.072;11.616;2023-02-17T10:46:55;96096.63;;;13.15;49.28
9225;BME280;4647;48.072;11.616;2023-02-17T10:49:27;96095.91;;;13.45;48.45
9225;BME280;4647;48.072;11.616;2023-02-17T10:52:00;96103.75;;;13.70;47.85
9225;BME280;4647;48.072;11.616;2023-02-17T10:54:35;96104.34;;;13.85;47.49
9225;BME280;4647;48.072;11.616;2023-02-17T10:57:08;96087.22;;;13.84;47.10
9225;BME280;4647;48.072;11.616;2023-02-17T10:59:40;96087.22;;;13.84;46.88
9225;BME280;4647;48.072;11.616;2023-02-17T11:02:35;96075.78;;;13.96;46.89
9225;BME280;4647;48.072;11.616;2023-02-17T11:05:05;96088.44;;;14.06;46.19
9225;BME280;4647;48.072;11.616;2023-02-17T11:07:36;96079.22;;;14.00;46.30
9225;BME280;4647;48.072;11.616;2023-02-17T11:10:20;96075.59;;;14.07;46.26
9225;BME280;4647;48.072;11.616;2023-02-17T11:12:50;96074.97;;;14.23;45.56
9225;BME280;4647;48.072;11.616;2023-02-17T11:15:22;96058.03;;;14.35;44.96
9225;BME280;4647;48.072;11.616;2023-02-17T11:17:55;96077.94;;;14.32;45.08
9225;BME280;4647;48.072;11.616;2023-02-17T11:20:34;96069.16;;;13.94;45.80
9225;BME280;4647;48.072;11.616;2023-02-17T11:23:07;96064.66;;;14.34;45.28
9225;BME280;4647;48.072;11.616;2023-02-17T11:25:38;96070.81;;;14.38;44.87
9225;BME280;4647;48.072;11.616;2023-02-17T11:28:11;96053.25;;;14.16;46.03
9225;BME280;4647;48.072;11.616;2023-02-17T11:30:48;96068.44;;;14.17;45.71
9225;BME280;4647;48.072;11.616;2023-02-17T11:33:22;96068.56;;;14.33;45.27
9225;BME280;4647;48.072;11.616;2023-02-17T11:35:57;96052.06;;;14.17;45.46
9225;BME280;4647;48.072;11.616;2023-02-17T11:38:31;96048.16;;;13.94;45.97
9225;BME280;4647;48.072;11.616;2023-02-17T11:41:01;96084.59;;;14.04;45.76
9225;BME280;4647;48.072;11.616;2023-02-17T11:43:31;96055.72;;;13.83;46.49
9225;BME280;4647;48.072;11.616;2023-02-17T11:46:07;96036.22;;;14.35;45.41
9225;BME280;4647;48.072;11.616;2023-02-17T11:49:01;96049.06;;;15.01;43.91
9225;BME280;4647;48.072;11.616;2023-02-17T11:51:43;96039.22;;;14.44;45.33
9225;BME280;4647;48.072;11.616;2023-02-17T11:54:22;96051.72;;;14.14;46.75
9225;BME280;4647;48.072;11.616;2023-02-17T11:56:59;96053.66;;;13.91;46.85
9225;BME280;4647;48.072;11.616;2023-02-17T11:59:43;96023.34;;;13.62;47.38
9225;BME280;4647;48.072;11.616;2023-02-17T12:02:17;96039.56;;;13.96;46.59
9225;BME280;4647;48.072;11.616;2023-02-17T12:05:10;96065.19;;;14.02;47.04
9225;BME280;4647;48.072;11.616;2023-02-17T12:07:59;96040.44;;;13.89;47.41
9225;BME280;4647;48.072;11.616;2023-02-17T12:10:43;96036.97;;;14.12;47.22
9225;BME280;4647;48.072;11.616;2023-02-17T12:13:21;96037.75;;;14.36;46.57
9225;BME280;4647;48.072;11.616;2023-02-17T12:16:05;96009.97;;;13.98;46.88
9225;BME280;4647;48.072;11.616;2023-02-17T12:18:46;96020.09;;;13.97;47.74
9225;BME280;4647;48.072;11.616;2023-02-17T12:21:27;96020.97;;;14.14;47.14
9225;BME280;4647;48.072;11.616;2023-02-17T12:24:06;96005.75;;;14.40;46.67
9225;BME280;4647;48.072;11.616;2023-02-17T12:26:45;96020.50;;;14.19;47.40
9225;BME280;4647;48.072;11.616;2023-02-17T12:29:23;96024.41;;;14.45;47.05
9225;BME280;4647;48.072;11.616;2023-02-17T12:32:09;96007.38;;;14.81;46.21
9225;BME280;4647;48.072;11.616;2023-02-17T12:37:26;96000.91;;;14.51;46.79
9225;BME280;4647;48.072;11.616;2023-02-17T12:39:58;96007.81;;;14.32;47.45
9225;BME280;4647;48.072;11.616;2023-02-17T12:42:32;96007.53;;;14.03;48.64
9225;BME280;4647;48.072;11.616;2023-02-17T12:45:04;96001.91;;;14.14;47.97
9225;BME280;4647;48.072;11.616;2023-02-17T12:47:37;96008.81;;;14.42;47.23
9225;BME280;4647;48.072;11.616;2023-02-17T12:50:15;96005.94;;;14.29;47.83
9225;BME280;4647;48.072;11.616;2023-02-17T12:52:51;96008.88;;;14.15;49.29
9225;BME280;4647;48.072;11.616;2023-02-17T12:55:24;96016.13;;;14.25;48.84
9225;BME280;4647;48.072;11.616;2023-02-17T12:57:56;96031.66;;;14.05;49.39
9225;BME280;4647;48.072;11.616;2023-02-17T13:00:30;96022.69;;;13.81;50.68
9225;BME280;4647;48.072;11.616;2023-02-17T13:03:02;96026.63;;;14.03;50.34
9225;BME280;4647;48.072;11.616;2023-02-17T13:05:34;96019.63;;;14.26;49.73
9225;BME280;4647;48.072;11.616;2023-02-17T13:08:09;96026.97;;;14.29;49.46
9225;BME280;4647;48.072;11.616;2023-02-17T13:10:42;96027.13;;;14.45;49.15
9225;BME280;4647;48.072;11.616;2023-02-17T13:13:12;96016.91;;;14.49;49.05
9225;BME280;4647;48.072;11.616;2023-02-17T13:15:43;96028.66;;;14.23;49.31
9225;BME280;4647;48.072;11.616;2023-02-17T13:18:24;96033.81;;;13.90;49.72
9225;BME280;4647;48.072;11.616;2023-02-17T13:20:56;96018.59;;;14.16;49.77
9225;BME280;4647;48.072;11.616;2023-02-17T13:23:36;96012.88;;;14.10;50.16
9225;BME280;4647;48.072;11.616;2023-02-17T13:26:26;96020.78;;;13.51;51.33
9225;BME280;4647;48.072;11.616;2023-02-17T13:29:34;96013.47;;;13.98;50.30
9225;BME280;4647;48.072;11.616;2023-02-17T13:32:05;96032.84;;;13.77;51.04
9225;BME280;4647;48.072;11.616;2023-02-17T13:34:36;96021.84;;;13.84;51.13
9225;BME280;4647;48.072;11.616;2023-02-17T13:37:22;96007.47;;;13.57;51.47
9225;BME280;4647;48.072;11.616;2023-02-17T13:39:55;96015.25;;;13.28;52.27
9225;BME280;4647;48.072;11.616;2023-02-17T13:42:35;96028.53;;;13.52;52.15
9225;BME280;4647;48.072;11.616;2023-02-17T13:45:13;96021.13;;;13.53;52.15
9225;BME280;4647;48.072;11.616;2023-02-17T13:47:42;96023.09;;;13.52;51.85
9225;BME280;4647;48.072;11.616;2023-02-17T13:50:28;96025.22;;;13.38;52.38
9225;BME280;4647;48.072;11.616;2023-02-17T13:52:58;96025.94;;;13.72;51.84